Gerald Majors — WDF5077 — position and weather

sailwx.info

Track history (hours):
 
Tides and Currents Weather Stations Pressure Air Temp Water Temp Dewpoint Dewpoint Depression Visibility Wind Speed Wind Dir Waves Ship Positions

Gerald Majors

Owner: Pine Bluff Sand & Gravel Co., Pine Bluff, AR. More information available from US FCC via Universal Licensing System and Coast Guard Vessel Documentation Center.

Last reported at 2018-May-11 07:09 UTC. Time now 2018-May-20 13:45 UTC.
Position N 32°49' W 091°09'.
Warning: this ship's position is 9 days out of date.

Length 21 m; draft 2.5 m.

Type: Towing. MMSI: 367459110.

Date/timePositionNaut miles runAvg speedWind from/ knotsBaromVisibWave heightAir tempDewpointWater temp
2018-May-11 07:09N 32°49' W 091°09'1 5.3
2018-May-11 06:57N 32°47' W 091°09'2 4.9
2018-May-11 06:29N 32°45' W 091°09'4 3.9
2018-May-11 05:24N 32°44' W 091°05'2 4.4
2018-May-11 05:00N 32°43' W 091°04'2 4.9
2018-May-11 04:30N 32°41' W 091°05'2 5.0
2018-May-11 04:00N 32°40' W 091°08'3 4.7
2018-May-11 03:25N 32°37' W 091°09'2 5.1
2018-May-11 03:00N 32°35' W 091°07'2 3.6
2018-May-11 02:30N 32°34' W 091°07'3 5.3
2018-May-11 02:00N 32°31' W 091°07'2 3.2
2018-May-11 01:30N 32°29' W 091°07'2 4.5
2018-May-11 00:59N 32°27' W 091°05'3 5.3
2018-May-11 00:30N 32°26' W 091°03'3 5.1
2018-May-11 00:00N 32°25' W 091°00'2 4.4
2018-May-10 23:30N 32°23' W 090°60'2 3.8
2018-May-10 23:00N 32°21' W 090°59'2 4.9
2018-May-10 22:30N 32°21' W 090°56'2 4.5
2018-May-10 22:00N 32°20' W 090°54'2 4.7
2018-May-10 21:30N 32°18' W 090°56'2 4.8
2018-May-10 21:00N 32°16' W 090°58'2 5.0
2018-May-10 20:30N 32°14' W 090°59'3 5.1
2018-May-10 20:00N 32°11' W 090°60'2 5.0
2018-May-10 19:30N 32°09' W 090°60'2 4.6
2018-May-10 19:00N 32°07' W 091°02'3 5.5
2018-May-10 18:30N 32°08' W 091°05'2 3.7
2018-May-10 18:00N 32°06' W 091°06'3 5.9
2018-May-10 17:27N 32°04' W 091°03'2 4.9
2018-May-10 17:00N 32°02' W 091°04'6 5.1
2018-May-10 15:50N 31°59' W 091°10'10 4.8
2018-May-10 13:42N 31°51' W 091°19'1 5.1
2018-May-10 13:27N 31°51' W 091°20'5 4.9
2018-May-10 12:22N 31°46' W 091°22'  
2018-May-01 10:08N 31°08' W 091°38'1 8.8
2018-May-01 10:00N 31°08' W 091°37'  
Track history (hours):
 
Tides and Currents Weather Stations Pressure Air Temp Water Temp Dewpoint Dewpoint Depression Visibility Wind Speed Wind Dir Waves Ship Positions

Gerald Majors

Owner: Pine Bluff Sand & Gravel Co., Pine Bluff, AR. More information available from US FCC via Universal Licensing System and Coast Guard Vessel Documentation Center.

Last reported at 2018-May-11 07:09 UTC. Time now 2018-May-20 13:45 UTC.
Position N 32°49' W 091°09'.
Warning: this ship's position is 9 days out of date.

Length 21 m; draft 2.5 m.

Type: Towing. MMSI: 367459110.

Date/timePositionNaut miles runAvg speedWind from/ knotsBaromVisibWave heightAir tempDewpointWater temp
2018-May-11 07:09N 32°49' W 091°09'1 5.3
2018-May-11 06:57N 32°47' W 091°09'2 4.9
2018-May-11 06:29N 32°45' W 091°09'4 3.9
2018-May-11 05:24N 32°44' W 091°05'2 4.4
2018-May-11 05:00N 32°43' W 091°04'2 4.9
2018-May-11 04:30N 32°41' W 091°05'2 5.0
2018-May-11 04:00N 32°40' W 091°08'3 4.7
2018-May-11 03:25N 32°37' W 091°09'2 5.1
2018-May-11 03:00N 32°35' W 091°07'2 3.6
2018-May-11 02:30N 32°34' W 091°07'3 5.3
2018-May-11 02:00N 32°31' W 091°07'2 3.2
2018-May-11 01:30N 32°29' W 091°07'2 4.5
2018-May-11 00:59N 32°27' W 091°05'3 5.3
2018-May-11 00:30N 32°26' W 091°03'3 5.1
2018-May-11 00:00N 32°25' W 091°00'2 4.4
2018-May-10 23:30N 32°23' W 090°60'2 3.8
2018-May-10 23:00N 32°21' W 090°59'2 4.9
2018-May-10 22:30N 32°21' W 090°56'2 4.5
2018-May-10 22:00N 32°20' W 090°54'2 4.7
2018-May-10 21:30N 32°18' W 090°56'2 4.8
2018-May-10 21:00N 32°16' W 090°58'2 5.0
2018-May-10 20:30N 32°14' W 090°59'3 5.1
2018-May-10 20:00N 32°11' W 090°60'2 5.0
2018-May-10 19:30N 32°09' W 090°60'2 4.6
2018-May-10 19:00N 32°07' W 091°02'3 5.5
2018-May-10 18:30N 32°08' W 091°05'2 3.7
2018-May-10 18:00N 32°06' W 091°06'3 5.9
2018-May-10 17:27N 32°04' W 091°03'2 4.9
2018-May-10 17:00N 32°02' W 091°04'6 5.1
2018-May-10 15:50N 31°59' W 091°10'10 4.8
2018-May-10 13:42N 31°51' W 091°19'1 5.1
2018-May-10 13:27N 31°51' W 091°20'5 4.9
2018-May-10 12:22N 31°46' W 091°22'  
2018-May-01 10:08N 31°08' W 091°38'1 8.8
2018-May-01 10:00N 31°08' W 091°37'  

Dump ship's entire track history